createdAt,value
2024-03-20T00:01:06.481Z,99.99
2024-03-20T00:02:06.416Z,99.99
2024-03-20T00:03:59.261Z,99.99
2024-03-20T00:04:59.196Z,99.99
2024-03-20T00:06:52.067Z,99.99
2024-03-20T00:07:51.986Z,99.99
2024-03-20T00:09:46.277Z,99.99
2024-03-20T00:10:45.171Z,99.99
2024-03-20T00:12:37.831Z,99.99
2024-03-20T00:13:37.764Z,99.99
2024-03-20T00:15:30.641Z,99.99
2024-03-20T00:16:30.557Z,99.99
2024-03-20T00:18:23.505Z,99.99
2024-03-20T00:19:23.353Z,99.99
2024-03-20T00:21:16.216Z,99.99
2024-03-20T00:22:16.152Z,99.99
2024-03-20T00:24:09.595Z,99.99
2024-03-20T00:25:09.135Z,99.99
2024-03-20T00:27:02.004Z,99.99
2024-03-20T00:28:01.946Z,99.99
2024-03-20T00:29:54.804Z,99.99
2024-03-20T00:30:54.730Z,99.99
2024-03-20T00:32:47.600Z,99.99
2024-03-20T00:33:47.523Z,99.99
2024-03-20T00:35:40.384Z,99.99
2024-03-20T00:36:40.322Z,99.99
2024-03-20T00:38:33.180Z,99.99
2024-03-20T00:39:33.113Z,99.99
2024-03-20T00:41:25.971Z,99.99
2024-03-20T00:42:25.919Z,99.99
2024-03-20T00:44:18.768Z,99.99
2024-03-20T00:45:18.741Z,99.99
2024-03-20T00:47:11.567Z,99.99
2024-03-20T00:48:16.100Z,99.99
2024-03-20T00:50:04.435Z,99.99
2024-03-20T00:51:04.353Z,99.99
2024-03-20T00:52:57.207Z,99.99
2024-03-20T00:53:57.142Z,99.99
2024-03-20T00:55:50.013Z,99.99
2024-03-20T00:56:49.941Z,99.99
2024-03-20T00:58:42.801Z,99.99
2024-03-20T00:59:42.739Z,99.99
2024-03-20T01:01:35.592Z,99.99
2024-03-20T01:02:35.530Z,99.99
2024-03-20T01:04:28.399Z,99.99
2024-03-20T01:05:28.325Z,99.99
2024-03-20T01:07:21.795Z,99.99
2024-03-20T01:08:21.516Z,99.99
2024-03-20T01:10:14.205Z,99.99
2024-03-20T01:11:14.113Z,99.99
2024-03-20T01:13:06.986Z,99.99
2024-03-20T01:14:06.918Z,99.99
2024-03-20T01:15:59.775Z,99.99
2024-03-20T01:16:59.713Z,99.99
2024-03-20T01:18:52.565Z,99.99
2024-03-20T01:19:52.503Z,99.99
2024-03-20T01:21:45.356Z,99.99
2024-03-20T01:22:45.298Z,99.99
2024-03-20T01:24:38.147Z,99.99
2024-03-20T01:25:38.088Z,99.99
2024-03-20T01:27:30.952Z,99.99
2024-03-20T01:28:30.891Z,99.99
2024-03-20T01:30:23.756Z,99.99
2024-03-20T01:31:23.675Z,99.99
2024-03-20T01:33:16.535Z,99.99
2024-03-20T01:34:16.481Z,99.99
2024-03-20T01:36:09.335Z,99.99
2024-03-20T01:37:09.270Z,99.99
2024-03-20T01:39:02.123Z,99.99
2024-03-20T01:40:02.059Z,99.99
2024-03-20T01:41:54.919Z,99.99
2024-03-20T01:42:54.861Z,99.99
2024-03-20T01:44:47.781Z,99.99
2024-03-20T01:45:47.650Z,99.99
2024-03-20T01:47:40.507Z,99.99
2024-03-20T01:48:40.439Z,99.99
2024-03-20T01:50:33.312Z,99.99
2024-03-20T01:51:33.238Z,99.99
2024-03-20T01:53:26.089Z,99.99
2024-03-20T01:54:26.067Z,99.99
2024-03-20T01:56:18.890Z,99.99
2024-03-20T01:57:18.826Z,99.99
2024-03-20T01:59:11.686Z,99.99
2024-03-20T02:00:11.633Z,99.99
2024-03-20T02:02:04.479Z,99.99
2024-03-20T02:03:04.420Z,99.99
2024-03-20T02:04:57.288Z,99.99
2024-03-20T02:05:57.221Z,99.99
2024-03-20T02:07:50.140Z,99.99
2024-03-20T02:08:50.018Z,99.99
2024-03-20T02:10:42.876Z,99.99
2024-03-20T02:11:42.812Z,99.99
2024-03-20T02:13:35.675Z,99.99
2024-03-20T02:14:35.603Z,99.99
2024-03-20T02:16:28.461Z,99.99
2024-03-20T02:17:28.401Z,99.99
2024-03-20T02:19:21.258Z,99.99
2024-03-20T02:20:21.182Z,99.99
2024-03-20T02:22:14.068Z,99.99
2024-03-20T02:23:13.982Z,99.99
2024-03-20T02:25:06.844Z,99.99
2024-03-20T02:26:06.783Z,99.99
2024-03-20T02:28:00.261Z,99.99
2024-03-20T02:28:59.770Z,99.99
2024-03-20T02:30:52.629Z,99.99
2024-03-20T02:31:52.569Z,99.99
2024-03-20T02:33:45.425Z,99.99
2024-03-20T02:34:45.350Z,99.99
2024-03-20T02:36:38.221Z,99.99
2024-03-20T02:37:38.149Z,99.99
2024-03-20T02:39:31.010Z,99.99
2024-03-20T02:40:30.941Z,99.99
2024-03-20T02:42:23.819Z,99.99
2024-03-20T02:43:23.744Z,99.99
2024-03-20T02:45:16.609Z,99.99
2024-03-20T02:46:16.534Z,99.99
2024-03-20T02:48:09.400Z,99.99
2024-03-20T02:49:09.335Z,99.99
2024-03-20T02:51:02.208Z,99.99
2024-03-20T02:52:02.123Z,99.99
2024-03-20T02:53:54.988Z,99.99
2024-03-20T02:54:54.928Z,99.99
2024-03-20T02:56:47.789Z,99.99
2024-03-20T02:57:47.715Z,99.99
2024-03-20T02:59:40.573Z,99.99
2024-03-20T03:00:40.507Z,99.99
2024-03-20T03:02:33.372Z,99.99
2024-03-20T03:03:33.305Z,99.99
2024-03-20T03:05:26.163Z,99.99
2024-03-20T03:06:26.132Z,99.99
2024-03-20T03:08:18.948Z,99.99
2024-03-20T03:09:18.893Z,99.99
2024-03-20T03:11:11.762Z,99.99
2024-03-20T03:12:11.689Z,99.99
2024-03-20T03:14:04.542Z,99.99
2024-03-20T03:15:07.883Z,99.99
2024-03-20T03:16:57.341Z,99.99
2024-03-20T03:17:57.283Z,99.99
2024-03-20T03:19:50.147Z,99.99
2024-03-20T03:20:50.066Z,99.99
2024-03-20T03:22:42.942Z,99.99
2024-03-20T03:23:42.875Z,99.99
2024-03-20T03:25:35.727Z,99.99
2024-03-20T03:26:35.661Z,99.99
2024-03-20T03:28:28.524Z,99.90
2024-03-20T03:29:28.453Z,99.99
2024-03-20T03:31:21.312Z,99.52
2024-03-20T03:32:21.252Z,99.99
2024-03-20T03:34:14.109Z,99.90
2024-03-20T03:35:14.058Z,99.99
2024-03-20T03:37:07.009Z,99.99
2024-03-20T03:38:06.824Z,99.99
2024-03-20T03:39:59.686Z,99.99
2024-03-20T03:40:59.637Z,99.90
2024-03-20T03:42:53.066Z,99.80
2024-03-20T03:43:52.612Z,99.99
2024-03-20T03:45:45.476Z,99.99
2024-03-20T03:46:45.413Z,99.99
2024-03-20T03:48:38.273Z,99.99
2024-03-20T03:49:38.197Z,99.99
2024-03-20T03:51:31.086Z,99.99
2024-03-20T03:52:31.000Z,99.99
2024-03-20T03:54:23.854Z,99.99
2024-03-20T03:55:23.796Z,99.99
2024-03-20T03:57:16.672Z,99.99
2024-03-20T03:58:16.600Z,99.99
2024-03-20T04:00:09.449Z,99.62
2024-03-20T04:01:13.988Z,99.52
2024-03-20T04:03:02.249Z,99.33
2024-03-20T04:04:02.170Z,99.33
2024-03-20T04:05:55.029Z,99.28
2024-03-20T04:06:54.970Z,99.80
2024-03-20T04:08:47.826Z,99.66
2024-03-20T04:09:47.772Z,99.76
2024-03-20T04:11:40.679Z,99.23
2024-03-20T04:12:40.623Z,99.37
2024-03-20T04:14:33.474Z,99.62
2024-03-20T04:15:33.416Z,99.62
2024-03-20T04:17:26.266Z,99.47
2024-03-20T04:18:26.232Z,99.52
2024-03-20T04:20:19.065Z,99.71
2024-03-20T04:21:18.994Z,99.57
2024-03-20T04:23:14.535Z,99.47
2024-03-20T04:24:11.792Z,99.37
2024-03-20T04:26:04.657Z,99.57
2024-03-20T04:27:04.588Z,98.80
2024-03-20T04:28:57.454Z,99.18
2024-03-20T04:29:57.382Z,98.71
2024-03-20T04:31:50.239Z,99.18
2024-03-20T04:32:50.180Z,99.08
2024-03-20T04:34:43.032Z,99.28
2024-03-20T04:35:42.966Z,99.18
2024-03-20T04:37:35.834Z,99.08
2024-03-20T04:38:35.767Z,98.99
2024-03-20T04:40:28.626Z,98.99
2024-03-20T04:41:28.616Z,98.90
2024-03-20T04:43:21.418Z,99.18
2024-03-20T04:44:21.357Z,99.08
2024-03-20T04:46:14.215Z,98.90
2024-03-20T04:47:14.141Z,98.99
2024-03-20T04:49:07.104Z,99.18
2024-03-20T04:50:06.952Z,99.28
2024-03-20T04:51:59.799Z,99.18
2024-03-20T04:52:59.733Z,99.08
2024-03-20T04:54:52.589Z,99.28
2024-03-20T04:55:52.522Z,98.99
2024-03-20T04:57:45.400Z,99.18
2024-03-20T04:58:45.324Z,98.80
2024-03-20T05:00:38.769Z,98.71
2024-03-20T05:01:41.297Z,98.71
2024-03-20T05:03:31.187Z,98.61
2024-03-20T05:04:31.101Z,98.61
2024-03-20T05:06:23.970Z,98.90
2024-03-20T05:07:23.900Z,98.99
2024-03-20T05:09:16.746Z,98.71
2024-03-20T05:10:16.684Z,98.61
2024-03-20T05:12:09.545Z,98.42
2024-03-20T05:14:22.383Z,98.52
2024-03-20T05:15:22.318Z,98.52
2024-03-20T05:17:15.207Z,98.71
2024-03-20T05:18:15.115Z,98.61
2024-03-20T05:20:07.973Z,98.71
2024-03-20T05:21:07.915Z,98.80
2024-03-20T05:23:00.774Z,98.61
2024-03-20T05:24:00.723Z,98.52
2024-03-20T05:25:53.571Z,98.52
2024-03-20T05:26:53.500Z,98.61
2024-03-20T05:28:46.362Z,98.71
2024-03-20T05:29:46.286Z,98.80
2024-03-20T05:31:39.149Z,98.71
2024-03-20T05:32:39.078Z,98.71
2024-03-20T05:34:31.971Z,98.61
2024-03-20T05:35:31.906Z,98.80
2024-03-20T05:37:24.752Z,98.80
2024-03-20T05:38:24.697Z,98.99
2024-03-20T05:40:17.559Z,98.42
2024-03-20T05:41:17.484Z,98.23
2024-03-20T05:43:10.346Z,98.03
2024-03-20T05:44:10.280Z,98.03
2024-03-20T05:46:03.132Z,98.13
2024-03-20T05:47:03.077Z,97.94
2024-03-20T05:48:55.932Z,98.03
2024-03-20T05:49:55.867Z,98.32
2024-03-20T05:51:48.725Z,98.32
2024-03-20T05:52:48.660Z,98.03
2024-03-20T05:54:41.525Z,97.85
2024-03-20T05:55:41.450Z,97.75
2024-03-20T05:57:34.331Z,98.13
2024-03-20T05:58:34.259Z,98.03
2024-03-20T06:00:27.093Z,97.94
2024-03-20T06:01:27.054Z,97.94
2024-03-20T06:03:19.895Z,98.13
2024-03-20T06:04:19.836Z,98.13
2024-03-20T06:06:12.694Z,98.03
2024-03-20T06:07:12.622Z,98.32
2024-03-20T06:09:20.024Z,98.32
2024-03-20T06:10:05.456Z,98.52
2024-03-20T06:11:58.294Z,98.13
2024-03-20T06:12:58.223Z,98.13
2024-03-20T06:14:51.074Z,98.23
2024-03-20T06:15:51.011Z,98.13
2024-03-20T06:17:43.862Z,97.94
2024-03-20T06:18:43.800Z,98.13
2024-03-20T06:20:36.656Z,98.52
2024-03-20T06:21:36.610Z,98.32
2024-03-20T06:23:29.458Z,98.32
2024-03-20T06:24:29.397Z,98.32
2024-03-20T06:26:22.422Z,98.52
2024-03-20T06:27:22.180Z,98.03
2024-03-20T06:29:15.034Z,98.13
2024-03-20T06:30:14.970Z,98.13
2024-03-20T06:32:07.825Z,98.03
2024-03-20T06:33:07.761Z,98.03
2024-03-20T06:35:00.632Z,98.13
2024-03-20T06:36:00.584Z,98.03
2024-03-20T06:37:53.414Z,98.13
2024-03-20T06:38:53.349Z,98.03
2024-03-20T06:40:46.201Z,98.42
2024-03-20T06:41:46.150Z,98.13
2024-03-20T06:43:39.009Z,98.13
2024-03-20T06:44:38.938Z,98.32
2024-03-20T06:46:31.791Z,97.94
2024-03-20T06:47:31.738Z,98.03
2024-03-20T06:49:24.593Z,98.03
2024-03-20T06:50:24.529Z,98.03
2024-03-20T06:52:17.387Z,98.13
2024-03-20T06:53:17.332Z,98.13
2024-03-20T06:55:10.213Z,98.32
2024-03-20T06:56:10.112Z,98.32
2024-03-20T06:58:02.969Z,98.13
2024-03-20T06:59:02.902Z,98.13
2024-03-20T07:00:55.773Z,98.03
2024-03-20T07:01:55.695Z,98.32
2024-03-20T07:03:48.581Z,98.03
2024-03-20T07:04:48.486Z,98.03
2024-03-20T07:06:41.357Z,98.32
2024-03-20T07:07:41.290Z,98.13
2024-03-20T07:09:34.180Z,98.13
2024-03-20T07:10:35.312Z,98.23
2024-03-20T07:12:26.933Z,98.42
2024-03-20T07:13:26.887Z,99.08
2024-03-20T07:15:19.727Z,98.71
2024-03-20T07:16:19.670Z,98.80
2024-03-20T07:18:12.532Z,98.61
2024-03-20T07:19:12.461Z,98.80
2024-03-20T07:21:05.328Z,98.90
2024-03-20T07:22:05.256Z,98.52
2024-03-20T07:23:58.110Z,98.42
2024-03-20T07:24:58.158Z,98.61
2024-03-20T07:26:50.927Z,98.71
2024-03-20T07:27:50.838Z,98.42
2024-03-20T07:29:43.700Z,98.99
2024-03-20T07:30:43.644Z,98.99
2024-03-20T07:32:36.491Z,99.18
2024-03-20T07:33:36.445Z,99.18
2024-03-20T07:35:29.290Z,99.28
2024-03-20T07:36:29.218Z,99.08
2024-03-20T07:38:22.069Z,99.08
2024-03-20T07:39:21.999Z,99.08
2024-03-20T07:41:14.858Z,99.28
2024-03-20T07:42:14.796Z,98.90
2024-03-20T07:44:07.655Z,99.18
2024-03-20T07:45:07.594Z,99.18
2024-03-20T07:47:00.521Z,98.90
2024-03-20T07:48:00.400Z,98.90
2024-03-20T07:49:53.252Z,99.08
2024-03-20T07:50:53.291Z,99.28
2024-03-20T07:52:46.630Z,99.08
2024-03-20T07:54:59.092Z,99.18
2024-03-20T07:55:59.006Z,99.66
2024-03-20T07:57:51.859Z,98.99
2024-03-20T07:58:51.802Z,98.99
2024-03-20T08:00:44.703Z,99.47
2024-03-20T08:01:44.606Z,99.47
2024-03-20T08:03:37.485Z,99.57
2024-03-20T08:04:38.795Z,99.47
2024-03-20T08:06:30.305Z,99.37
2024-03-20T08:07:30.188Z,99.37
2024-03-20T08:09:23.053Z,99.95
2024-03-20T08:10:22.992Z,99.95
2024-03-20T08:12:15.905Z,99.95
2024-03-20T08:13:15.840Z,99.99
2024-03-20T08:15:08.644Z,99.99
2024-03-20T08:16:08.580Z,99.95
2024-03-20T08:18:01.437Z,99.99
2024-03-20T08:19:01.397Z,99.85
2024-03-20T08:20:54.280Z,99.99
2024-03-20T08:21:54.199Z,99.99
2024-03-20T08:23:47.032Z,99.99
2024-03-20T08:24:46.963Z,99.76
2024-03-20T08:26:39.820Z,99.99
2024-03-20T08:27:39.768Z,99.99
2024-03-20T08:29:32.623Z,99.99
2024-03-20T08:30:32.546Z,99.99
2024-03-20T08:32:25.482Z,99.99
2024-03-20T08:33:25.383Z,99.99
2024-03-20T08:35:18.273Z,99.99
2024-03-20T08:36:18.140Z,99.99
2024-03-20T08:38:11.001Z,99.99
2024-03-20T08:39:10.936Z,99.99
2024-03-20T08:41:03.874Z,99.99
2024-03-20T08:42:05.368Z,99.99
2024-03-20T08:43:56.590Z,99.99
2024-03-20T08:44:56.529Z,99.99
2024-03-20T08:46:49.375Z,99.99
2024-03-20T08:47:49.345Z,99.99
2024-03-20T08:49:42.193Z,99.99
2024-03-20T08:50:42.159Z,99.95
2024-03-20T08:52:34.985Z,99.99
2024-03-20T08:53:34.897Z,99.99
2024-03-20T08:55:27.816Z,99.99
2024-03-20T08:56:27.703Z,99.95
2024-03-20T08:58:20.552Z,99.99
2024-03-20T08:59:20.523Z,99.99
2024-03-20T09:01:13.366Z,99.99
2024-03-20T09:02:13.292Z,99.95
2024-03-20T09:04:06.151Z,99.99
2024-03-20T09:05:06.076Z,99.95
2024-03-20T09:06:58.937Z,99.99
2024-03-20T09:09:11.777Z,99.99
2024-03-20T09:10:11.705Z,99.99
2024-03-20T09:12:04.566Z,99.99
2024-03-20T09:13:04.506Z,99.99
2024-03-20T09:14:57.352Z,99.99
2024-03-20T09:15:59.082Z,99.95
2024-03-20T09:17:50.214Z,99.99
2024-03-20T09:18:50.108Z,99.99
2024-03-20T09:20:42.946Z,99.95
2024-03-20T09:21:44.541Z,99.99
2024-03-20T09:23:35.745Z,99.99
2024-03-20T09:24:35.745Z,99.99
2024-03-20T09:26:28.549Z,99.99
2024-03-20T09:27:28.473Z,99.99
2024-03-20T09:29:21.336Z,99.99
2024-03-20T09:30:21.290Z,99.99
2024-03-20T09:32:15.097Z,99.99
2024-03-20T09:33:14.060Z,99.99
2024-03-20T09:35:07.008Z,99.99
2024-03-20T09:36:06.865Z,99.99
2024-03-20T09:37:59.713Z,99.99
2024-03-20T09:38:59.637Z,99.95
2024-03-20T09:40:52.498Z,99.99
2024-03-20T09:41:52.470Z,99.95
2024-03-20T09:43:45.294Z,99.76
2024-03-20T09:44:45.303Z,99.99
2024-03-20T09:46:39.574Z,99.99
2024-03-20T09:47:38.019Z,99.99
2024-03-20T09:49:30.877Z,99.99
2024-03-20T09:50:30.810Z,99.99
2024-03-20T09:52:23.685Z,99.99
2024-03-20T09:53:23.611Z,99.99
2024-03-20T09:55:16.466Z,99.95
2024-03-20T09:56:16.402Z,99.99
2024-03-20T09:58:09.257Z,99.99
2024-03-20T09:59:09.212Z,99.99
2024-03-20T10:01:02.054Z,99.99
2024-03-20T10:02:02.090Z,99.99
2024-03-20T10:03:54.847Z,99.99
2024-03-20T10:04:56.920Z,99.99
2024-03-20T10:06:47.642Z,99.99
2024-03-20T10:07:47.584Z,99.99
2024-03-20T10:09:40.482Z,99.99
2024-03-20T10:10:40.379Z,99.76
2024-03-20T10:12:33.220Z,99.99
2024-03-20T10:13:33.160Z,99.99
2024-03-20T10:15:26.031Z,99.99
2024-03-20T10:16:27.047Z,99.99
2024-03-20T10:18:18.808Z,99.99
2024-03-20T10:19:18.750Z,99.99
2024-03-20T10:21:11.612Z,99.99
2024-03-20T10:22:11.537Z,99.99
2024-03-20T10:24:04.991Z,99.99
2024-03-20T10:25:04.727Z,99.99
2024-03-20T10:26:57.379Z,99.99
2024-03-20T10:27:57.323Z,99.99
2024-03-20T10:29:58.730Z,99.99
2024-03-20T10:30:50.125Z,99.99
2024-03-20T10:32:42.986Z,99.99
2024-03-20T10:33:42.932Z,99.99
2024-03-20T10:35:35.773Z,99.99
2024-03-20T10:36:35.710Z,99.99
2024-03-20T10:38:28.566Z,99.99
2024-03-20T10:40:55.500Z,99.99
2024-03-20T10:41:41.354Z,99.99
2024-03-20T10:43:34.197Z,99.99
2024-03-20T10:44:34.147Z,99.99
2024-03-20T10:46:26.997Z,99.99
2024-03-20T10:47:26.945Z,99.99
2024-03-20T10:49:19.789Z,99.99
2024-03-20T10:50:19.735Z,99.99
2024-03-20T10:52:12.593Z,99.99
2024-03-20T10:53:12.579Z,99.99
2024-03-20T10:55:05.391Z,99.99
2024-03-20T10:56:05.324Z,99.99
2024-03-20T10:57:58.197Z,99.99
2024-03-20T10:58:58.128Z,99.99
2024-03-20T11:00:50.979Z,99.99
2024-03-20T11:01:50.916Z,99.99
2024-03-20T11:03:43.791Z,99.99
2024-03-20T11:04:43.718Z,99.99
2024-03-20T11:06:36.572Z,99.99
2024-03-20T11:07:36.507Z,99.99
2024-03-20T11:09:30.340Z,99.99
2024-03-20T11:10:29.302Z,99.99
2024-03-20T11:12:22.162Z,99.99
2024-03-20T11:13:22.108Z,99.99
2024-03-20T11:15:14.957Z,99.99
2024-03-20T11:16:14.885Z,99.99
2024-03-20T11:18:07.753Z,99.99
2024-03-20T11:19:07.714Z,99.99
2024-03-20T11:21:32.133Z,99.99
2024-03-20T11:22:00.497Z,99.99
2024-03-20T11:23:53.719Z,99.99
2024-03-20T11:24:53.647Z,99.99
2024-03-20T11:26:46.508Z,99.99
2024-03-20T11:27:46.483Z,99.99
2024-03-20T11:29:39.310Z,99.90
2024-03-20T11:30:39.273Z,99.99
2024-03-20T11:32:32.114Z,99.99
2024-03-20T11:33:32.029Z,99.99
2024-03-20T11:35:24.893Z,99.99
2024-03-20T11:36:24.829Z,99.99
2024-03-20T11:38:17.686Z,99.99
2024-03-20T11:39:17.622Z,99.99
2024-03-20T11:41:10.484Z,99.99
2024-03-20T11:42:10.415Z,99.99
2024-03-20T11:44:03.278Z,99.99
2024-03-20T11:45:03.216Z,99.99
2024-03-20T11:46:56.069Z,99.99
2024-03-20T11:47:56.012Z,99.99
2024-03-20T11:49:48.877Z,99.99
2024-03-20T11:50:48.813Z,99.99
2024-03-20T11:52:41.665Z,99.99
2024-03-20T11:53:41.623Z,99.99
2024-03-20T11:55:34.461Z,99.99
2024-03-20T11:56:34.387Z,99.99
2024-03-20T11:58:27.252Z,99.99
2024-03-20T11:59:27.198Z,99.99
2024-03-20T12:01:20.039Z,99.99
2024-03-20T12:02:19.988Z,99.99
2024-03-20T12:04:12.839Z,99.99
2024-03-20T12:05:12.773Z,99.99
2024-03-20T12:07:06.238Z,99.99
2024-03-20T12:08:05.767Z,99.99
2024-03-20T12:09:58.618Z,99.99
2024-03-20T12:10:58.558Z,99.99
2024-03-20T12:12:51.408Z,99.99
2024-03-20T12:13:51.346Z,99.99
2024-03-20T12:15:44.227Z,99.99
2024-03-20T12:16:44.141Z,99.99
2024-03-20T12:18:37.005Z,99.80
2024-03-20T12:19:36.934Z,99.71
2024-03-20T12:21:29.807Z,99.99
2024-03-20T12:22:29.737Z,99.85
2024-03-20T12:24:25.627Z,99.99
2024-03-20T12:25:25.109Z,99.99
2024-03-20T12:27:15.398Z,99.99
2024-03-20T12:28:15.330Z,99.99
2024-03-20T12:30:08.193Z,99.99
2024-03-20T12:31:08.132Z,99.99
2024-03-20T12:33:00.987Z,99.99
2024-03-20T12:34:00.944Z,99.99
2024-03-20T12:35:53.787Z,99.99
2024-03-20T12:36:53.713Z,99.99
2024-03-20T12:38:46.579Z,99.99
2024-03-20T12:39:46.525Z,99.99
2024-03-20T12:41:39.366Z,99.99
2024-03-20T12:42:39.308Z,99.99
2024-03-20T12:44:32.170Z,99.99
2024-03-20T12:45:32.100Z,99.99
2024-03-20T12:47:26.184Z,99.99
2024-03-20T12:48:25.085Z,99.99
2024-03-20T12:50:46.481Z,99.99
2024-03-20T12:51:17.885Z,99.99
2024-03-20T12:53:10.744Z,99.99
2024-03-20T12:54:12.849Z,99.99
2024-03-20T12:56:03.550Z,99.99
2024-03-20T12:57:03.476Z,99.99
2024-03-20T12:58:56.334Z,99.99
2024-03-20T12:59:56.266Z,99.99
2024-03-20T13:01:49.129Z,99.99
2024-03-20T13:02:49.082Z,99.99
2024-03-20T13:04:41.931Z,99.99
2024-03-20T13:05:41.861Z,99.99
2024-03-20T13:07:34.722Z,99.99
2024-03-20T13:08:34.653Z,99.99
2024-03-20T13:10:27.517Z,99.99
2024-03-20T13:11:27.450Z,99.99
2024-03-20T13:13:20.315Z,99.99
2024-03-20T13:14:20.248Z,99.99
2024-03-20T13:16:13.107Z,99.99
2024-03-20T13:17:13.068Z,99.85
2024-03-20T13:19:05.906Z,99.99
2024-03-20T13:20:05.856Z,99.99
2024-03-20T13:21:58.706Z,99.99
2024-03-20T13:24:11.540Z,99.95
2024-03-20T13:25:11.482Z,99.99
2024-03-20T13:27:04.338Z,99.99
2024-03-20T13:28:04.274Z,99.99
2024-03-20T13:29:57.131Z,99.99
2024-03-20T13:30:57.068Z,99.99
2024-03-20T13:32:49.970Z,99.99
2024-03-20T13:33:49.895Z,99.99
2024-03-20T13:35:42.727Z,99.99
2024-03-20T13:36:42.663Z,99.99
2024-03-20T13:38:46.088Z,99.99
2024-03-20T13:39:35.455Z,99.99
2024-03-20T13:41:28.316Z,99.99
2024-03-20T13:42:28.243Z,99.66
2024-03-20T13:44:21.114Z,99.38
2024-03-20T13:45:21.045Z,99.76
2024-03-20T13:47:13.902Z,99.57
2024-03-20T13:48:13.834Z,99.66
2024-03-20T13:50:06.723Z,99.99
2024-03-20T13:51:06.665Z,99.95
2024-03-20T13:52:59.504Z,99.48
2024-03-20T13:53:59.438Z,99.09
2024-03-20T13:55:54.587Z,98.85
2024-03-20T13:56:52.231Z,98.28
2024-03-20T13:58:45.090Z,98.38
2024-03-20T13:59:45.029Z,97.99
2024-03-20T14:01:37.948Z,97.23
2024-03-20T14:02:37.937Z,97.71
2024-03-20T14:04:30.677Z,97.04
2024-03-20T14:05:30.622Z,96.56
2024-03-20T14:07:23.485Z,96.47
2024-03-20T14:08:33.799Z,96.18
2024-03-20T14:10:16.295Z,95.70
2024-03-20T14:11:16.212Z,95.79
2024-03-20T14:13:09.087Z,95.70
2024-03-20T14:14:09.005Z,95.32
2024-03-20T14:16:01.872Z,95.17
2024-03-20T14:17:01.792Z,94.89
2024-03-20T14:18:54.664Z,95.07
2024-03-20T14:19:54.591Z,94.79
2024-03-20T14:21:47.468Z,94.60
2024-03-20T14:22:47.393Z,94.41
2024-03-20T14:24:40.263Z,94.70
2024-03-20T14:25:40.200Z,94.31
2024-03-20T14:27:33.044Z,94.89
2024-03-20T14:28:32.978Z,94.02
2024-03-20T14:30:25.842Z,93.93
2024-03-20T14:31:25.781Z,94.12
2024-03-20T14:33:18.641Z,93.55
2024-03-20T14:34:18.578Z,93.16
2024-03-20T14:36:11.458Z,93.07
2024-03-20T14:37:11.379Z,92.59
2024-03-20T14:39:04.312Z,92.78
2024-03-20T14:40:04.197Z,92.78
2024-03-20T14:41:57.054Z,92.69
2024-03-20T14:42:56.986Z,92.92
2024-03-20T14:44:49.847Z,92.21
2024-03-20T14:45:49.786Z,91.87
2024-03-20T14:47:42.672Z,91.53
2024-03-20T14:48:42.580Z,91.11
2024-03-20T14:50:35.452Z,91.30
2024-03-20T14:51:35.421Z,91.11
2024-03-20T14:53:28.243Z,90.53
2024-03-20T14:54:28.177Z,90.72
2024-03-20T14:56:21.026Z,90.63
2024-03-20T14:57:20.967Z,90.53
2024-03-20T14:59:13.829Z,90.63
2024-03-20T15:00:13.785Z,90.63
2024-03-20T15:02:06.669Z,90.53
2024-03-20T15:03:06.564Z,90.91
2024-03-20T15:04:59.468Z,90.44
2024-03-20T15:05:59.347Z,90.44
2024-03-20T15:07:52.226Z,90.34
2024-03-20T15:08:52.152Z,89.95
2024-03-20T15:10:45.103Z,90.34
2024-03-20T15:11:44.951Z,90.34
2024-03-20T15:13:37.823Z,90.53
2024-03-20T15:14:37.770Z,90.63
2024-03-20T15:16:30.615Z,89.76
2024-03-20T15:17:30.560Z,89.76
2024-03-20T15:19:23.408Z,89.86
2024-03-20T15:20:22.649Z,89.19
2024-03-20T15:22:15.499Z,89.86
2024-03-20T15:23:15.467Z,89.76
2024-03-20T15:25:08.291Z,89.48
2024-03-20T15:26:08.245Z,89.38
2024-03-20T15:28:01.812Z,90.15
2024-03-20T15:29:01.750Z,89.38
2024-03-20T15:30:54.627Z,89.58
2024-03-20T15:31:54.538Z,89.09
2024-03-20T15:33:47.414Z,88.90
2024-03-20T15:34:47.344Z,88.62
2024-03-20T15:36:40.202Z,88.81
2024-03-20T15:37:40.155Z,88.90
2024-03-20T15:39:33.001Z,89.00
2024-03-20T15:40:32.938Z,88.33
2024-03-20T15:42:25.837Z,88.23
2024-03-20T15:43:25.740Z,88.33
2024-03-20T15:45:18.598Z,88.23
2024-03-20T15:46:18.530Z,88.33
2024-03-20T15:48:11.386Z,88.23
2024-03-20T15:49:11.341Z,88.62
2024-03-20T15:51:04.201Z,89.38
2024-03-20T15:52:04.147Z,89.09
2024-03-20T15:53:56.999Z,88.71
2024-03-20T15:54:56.924Z,88.81
2024-03-20T15:56:49.873Z,88.76
2024-03-20T15:57:49.731Z,88.47
2024-03-20T15:59:42.585Z,88.90
2024-03-20T16:00:42.533Z,88.71
2024-03-20T16:02:35.381Z,89.19
2024-03-20T16:03:35.319Z,89.00
2024-03-20T16:05:28.194Z,89.81
2024-03-20T16:06:30.668Z,89.23
2024-03-20T16:08:20.979Z,89.33
2024-03-20T16:09:20.919Z,88.85
2024-03-20T16:11:13.777Z,89.33
2024-03-20T16:12:16.735Z,89.43
2024-03-20T16:14:06.577Z,89.58
2024-03-20T16:15:06.514Z,89.19
2024-03-20T16:16:59.391Z,89.52
2024-03-20T16:17:59.333Z,88.66
2024-03-20T16:19:52.202Z,88.76
2024-03-20T16:20:52.131Z,88.52
2024-03-20T16:22:44.988Z,88.95
2024-03-20T16:23:44.945Z,88.62
2024-03-20T16:25:37.789Z,88.76
2024-03-20T16:26:37.731Z,89.00
2024-03-20T16:28:30.595Z,89.14
2024-03-20T16:29:30.520Z,89.52
2024-03-20T16:31:23.414Z,89.62
2024-03-20T16:32:23.427Z,89.38
2024-03-20T16:34:16.194Z,89.72
2024-03-20T16:35:16.140Z,90.58
2024-03-20T16:37:08.995Z,90.19
2024-03-20T16:38:08.923Z,90.58
2024-03-20T16:40:01.864Z,90.96
2024-03-20T16:41:03.156Z,90.67
2024-03-20T16:42:54.607Z,91.25
2024-03-20T16:43:54.517Z,91.68
2024-03-20T16:45:47.384Z,91.92
2024-03-20T16:46:47.314Z,91.87
2024-03-20T16:48:40.168Z,92.87
2024-03-20T16:49:40.117Z,93.02
2024-03-20T16:51:32.983Z,92.87
2024-03-20T16:52:32.906Z,92.97
2024-03-20T16:54:27.906Z,92.83
2024-03-20T16:55:25.710Z,93.07
2024-03-20T16:57:18.572Z,93.16
2024-03-20T16:58:18.504Z,93.35
2024-03-20T17:00:11.411Z,93.35
2024-03-20T17:01:11.316Z,93.26
2024-03-20T17:03:04.183Z,93.45
2024-03-20T17:04:04.129Z,93.30
2024-03-20T17:05:56.991Z,94.17
2024-03-20T17:06:56.928Z,93.98
2024-03-20T17:08:49.781Z,93.74
2024-03-20T17:09:49.721Z,94.31
2024-03-20T17:11:42.582Z,94.07
2024-03-20T17:12:42.521Z,94.55
2024-03-20T17:14:35.388Z,94.45
2024-03-20T17:15:35.330Z,94.65
2024-03-20T17:17:28.185Z,94.74
2024-03-20T17:18:28.139Z,94.55
2024-03-20T17:20:20.996Z,95.07
2024-03-20T17:21:20.922Z,95.12
2024-03-20T17:23:13.795Z,95.89
2024-03-20T17:24:13.799Z,94.93
2024-03-20T17:26:06.589Z,95.70
2024-03-20T17:27:06.535Z,95.61
2024-03-20T17:28:59.391Z,95.51
2024-03-20T17:29:59.411Z,96.08
2024-03-20T17:32:05.011Z,95.51
2024-03-20T17:33:03.282Z,95.70
2024-03-20T17:34:56.085Z,95.89
2024-03-20T17:35:56.015Z,95.61
2024-03-20T17:37:48.883Z,96.18
2024-03-20T17:38:48.815Z,96.56
2024-03-20T17:40:41.671Z,96.66
2024-03-20T17:41:41.617Z,96.37
2024-03-20T17:43:34.484Z,96.47
2024-03-20T17:44:34.410Z,96.66
2024-03-20T17:46:27.279Z,96.94
2024-03-20T17:47:27.210Z,96.75
2024-03-20T17:49:20.068Z,96.75
2024-03-20T17:50:20.025Z,96.94
2024-03-20T17:52:12.881Z,96.94
2024-03-20T17:53:12.809Z,96.47
2024-03-20T17:55:05.664Z,97.04
2024-03-20T17:56:05.607Z,96.94
2024-03-20T17:57:58.502Z,96.47
2024-03-20T17:58:58.405Z,96.75
2024-03-20T18:00:51.260Z,96.75
2024-03-20T18:01:51.201Z,96.66
2024-03-20T18:03:44.063Z,96.84
2024-03-20T18:04:43.993Z,96.47
2024-03-20T18:06:36.863Z,96.47
2024-03-20T18:07:36.788Z,97.04
2024-03-20T18:09:29.660Z,96.75
2024-03-20T18:10:29.586Z,96.47
2024-03-20T18:12:22.459Z,96.84
2024-03-20T18:13:22.406Z,96.94
2024-03-20T18:15:15.258Z,97.23
2024-03-20T18:16:15.194Z,96.75
2024-03-20T18:18:08.059Z,96.84
2024-03-20T18:19:09.310Z,97.04
2024-03-20T18:21:00.857Z,96.66
2024-03-20T18:22:00.805Z,96.84
2024-03-20T18:23:53.659Z,97.13
2024-03-20T18:24:53.604Z,97.13
2024-03-20T18:26:46.456Z,96.94
2024-03-20T18:27:46.398Z,97.04
2024-03-20T18:29:39.266Z,96.94
2024-03-20T18:30:39.196Z,97.04
2024-03-20T18:32:32.064Z,97.13
2024-03-20T18:33:31.992Z,96.84
2024-03-20T18:35:24.873Z,97.13
2024-03-20T18:36:24.795Z,96.94